Tres Rios, Brazil
Current Conditions -  °F | °C
As of 5:00 AM on Saturday 25 Oct 2014 (Local Time) from SBGL Reporting Station
Clear Clear  
Wind Chill: 70°   Ceiling: Unl
Heat Index: 70°   Visibility: 6mi
Dew Point: 63°   Wind: 2mph
Humidity: 78%   Direction: 130°SE
Pressure: 29.88"   Gusts: NA
Location:  22.11°S, 43.21°W
Report Text: SBGL 250700Z 13002KT CAVOK 21/17 Q1012
Loading
Personal Weather Stations






























Interactive Weather Map
Tropical Storm Tracking
New forecast layout! Learn more

10-Day Weather Forecast

Advertisements
Track Severe Weather on mobile